Time;durP1;ratioP1;P1;durP2;ratioP2;P2;SDS_P1;SDS_P2;PMS_P1;PMS_P2;Temp;Humidity;BMP_temperature;BMP_pressure;BME280_temperature;BME280_humidity;BME280_pressure;Samples;Min_cycle;Max_cycle;Signal;HPM_P1;HPM_P2
2023/12/15 00:02:24;;;;;;;25.60;17.73;;;7.30;99.70;;;;;;10366600;28;20215;-65
2023/12/15 00:07:27;;;;;;;26.00;18.43;;;7.20;99.70;;;;;;10362706;28;20203;-65
2023/12/15 00:12:32;;;;;;;25.07;17.70;;;7.20;99.70;;;;;;10358802;28;20254;-65
2023/12/15 00:17:37;;;;;;;25.37;17.63;;;7.20;99.70;;;;;;10362196;28;20211;-65
2023/12/15 00:22:41;;;;;;;24.17;17.40;;;7.20;99.80;;;;;;10365691;28;20230;-65
2023/12/15 00:27:44;;;;;;;25.30;17.73;;;7.20;99.80;;;;;;10358954;28;20208;-65
2023/12/15 00:32:49;;;;;;;26.50;17.60;;;7.20;99.80;;;;;;10360352;28;20285;-66
2023/12/15 00:37:53;;;;;;;25.07;17.03;;;7.20;99.90;;;;;;10361324;28;20206;-66
2023/12/15 00:42:57;;;;;;;24.40;17.37;;;7.20;99.90;;;;;;10360747;28;20220;-65
2023/12/15 00:48:02;;;;;;;23.87;17.13;;;7.30;99.90;;;;;;10364280;28;20207;-66
2023/12/15 00:53:05;;;;;;;26.37;17.03;;;7.30;99.90;;;;;;10352543;28;20753;-65
2023/12/15 00:58:09;;;;;;;23.97;16.83;;;7.30;99.90;;;;;;10356083;28;20204;-65
2023/12/15 01:03:14;;;;;;;24.83;16.27;;;7.30;99.90;;;;;;10355489;28;20232;-65
2023/12/15 01:08:18;;;;;;;22.67;16.10;;;7.40;99.90;;;;;;10361373;28;20960;-65
2023/12/15 01:13:22;;;;;;;21.73;15.93;;;7.40;99.90;;;;;;10368382;28;20282;-65
2023/12/15 01:18:27;;;;;;;24.30;17.03;;;7.40;99.90;;;;;;10369751;28;20208;-65
2023/12/15 01:23:30;;;;;;;24.93;17.80;;;7.40;99.90;;;;;;10367176;28;20277;-64
2023/12/15 01:28:34;;;;;;;24.13;16.67;;;7.50;99.90;;;;;;10368787;28;20204;-64
2023/12/15 01:33:39;;;;;;;22.50;16.37;;;7.50;99.90;;;;;;10365797;28;20233;-64
2023/12/15 01:38:43;;;;;;;20.97;15.60;;;7.50;99.90;;;;;;10369448;28;20247;-64
2023/12/15 01:43:47;;;;;;;23.40;16.30;;;7.50;99.90;;;;;;10364145;28;20221;-64
2023/12/15 01:48:53;;;;;;;23.70;17.70;;;7.50;99.90;;;;;;10367246;28;20207;-64
2023/12/15 01:53:57;;;;;;;25.77;18.03;;;7.50;99.90;;;;;;10370190;28;20232;-64
2023/12/15 01:59:00;;;;;;;22.03;16.67;;;7.60;99.90;;;;;;10366301;28;20753;-65
2023/12/15 02:04:06;;;;;;;26.30;16.37;;;7.60;99.90;;;;;;10362975;28;20266;-64
2023/12/15 02:09:09;;;;;;;22.87;15.30;;;7.60;99.90;;;;;;10371035;28;20208;-64
2023/12/15 02:14:13;;;;;;;21.63;15.73;;;7.60;99.90;;;;;;10365626;28;20232;-65
2023/12/15 02:19:18;;;;;;;23.87;14.60;;;7.60;99.90;;;;;;10359120;28;20208;-65
2023/12/15 02:24:23;;;;;;;23.07;15.77;;;7.60;99.90;;;;;;10366896;28;20227;-65
2023/12/15 02:29:27;;;;;;;23.87;15.53;;;7.60;99.90;;;;;;10364886;28;20604;-65
2023/12/15 02:34:31;;;;;;;21.37;15.07;;;7.70;99.90;;;;;;10363859;28;20236;-65
2023/12/15 02:39:39;;;;;;;23.80;15.80;;;7.70;99.90;;;;;;10368948;28;20200;-65
2023/12/15 02:44:44;;;;;;;21.47;15.20;;;7.70;99.90;;;;;;10360771;28;20267;-65
2023/12/15 02:49:47;;;;;;;20.40;14.83;;;7.80;99.90;;;;;;10368714;28;20231;-65
2023/12/15 02:54:52;;;;;;;21.10;15.37;;;7.80;99.90;;;;;;10368092;28;20224;-65
2023/12/15 02:59:56;;;;;;;22.03;15.73;;;7.80;99.90;;;;;;10367340;28;20200;-64
2023/12/15 03:04:59;;;;;;;23.07;16.63;;;7.80;99.90;;;;;;10366372;28;20217;-65
2023/12/15 03:10:05;;;;;;;22.33;16.70;;;7.80;99.90;;;;;;10361425;28;20201;-65
2023/12/15 03:15:09;;;;;;;23.60;16.60;;;7.90;99.90;;;;;;10358951;28;20866;-64
2023/12/15 03:20:13;;;;;;;21.73;16.13;;;7.90;99.90;;;;;;10357073;28;20228;-64
2023/12/15 03:25:18;;;;;;;26.93;16.87;;;7.90;99.90;;;;;;10360822;28;20223;-65
2023/12/15 03:30:21;;;;;;;22.47;16.13;;;7.90;99.90;;;;;;10365351;28;20221;-65
2023/12/15 03:35:25;;;;;;;22.17;16.80;;;7.90;99.90;;;;;;10361739;28;20260;-65
2023/12/15 03:40:30;;;;;;;25.13;17.13;;;7.80;99.90;;;;;;10355541;28;20228;-65
2023/12/15 03:45:34;;;;;;;23.47;15.57;;;7.80;99.90;;;;;;10362155;28;20222;-65
2023/12/15 03:50:37;;;;;;;25.60;17.30;;;7.80;99.90;;;;;;10358939;28;20208;-65
2023/12/15 03:55:42;;;;;;;23.17;16.97;;;7.80;99.90;;;;;;10362472;28;20236;-65
2023/12/15 04:00:46;;;;;;;23.00;17.07;;;7.90;99.90;;;;;;10362951;28;20197;-64
2023/12/15 04:05:49;;;;;;;23.50;17.03;;;7.90;99.90;;;;;;10365674;28;20216;-64
2023/12/15 04:10:54;;;;;;;26.97;17.00;;;7.90;99.90;;;;;;10363885;28;20259;-64
2023/12/15 04:15:58;;;;;;;23.77;17.57;;;7.90;99.90;;;;;;10364087;28;20224;-63
2023/12/15 04:21:03;;;;;;;25.13;16.73;;;7.90;99.90;;;;;;10363606;28;20215;-63
2023/12/15 04:26:09;;;;;;;23.13;16.90;;;8.00;99.90;;;;;;10367149;28;20247;-63
2023/12/15 04:31:13;;;;;;;25.43;17.40;;;8.00;99.90;;;;;;10364522;28;20258;-62
2023/12/15 04:36:19;;;;;;;23.73;15.60;;;8.00;99.90;;;;;;10361726;28;20290;-63
2023/12/15 04:41:25;;;;;;;25.97;16.57;;;8.00;99.90;;;;;;10359483;28;20250;-63
2023/12/15 04:46:30;;;;;;;23.93;16.90;;;8.00;99.90;;;;;;10355831;28;20201;-65
2023/12/15 04:51:34;;;;;;;21.17;16.23;;;8.10;99.90;;;;;;10360236;28;20217;-65
2023/12/15 04:56:39;;;;;;;23.83;16.90;;;8.00;99.90;;;;;;10370357;28;20680;-65
2023/12/15 05:01:44;;;;;;;24.27;16.83;;;8.00;99.90;;;;;;10363555;28;20250;-64
2023/12/15 05:06:48;;;;;;;22.10;17.73;;;8.00;99.90;;;;;;10368960;28;20254;-64
2023/12/15 05:11:53;;;;;;;25.53;17.27;;;8.00;99.90;;;;;;10357752;28;20278;-64
2023/12/15 05:16:56;;;;;;;24.80;17.67;;;8.00;99.90;;;;;;10354804;28;20224;-64
2023/12/15 05:22:00;;;;;;;26.77;17.67;;;8.00;99.90;;;;;;10365604;28;20278;-65
2023/12/15 05:27:08;;;;;;;27.17;18.27;;;8.00;99.90;;;;;;10361542;28;20207;-64
2023/12/15 05:32:11;;;;;;;25.67;18.40;;;8.00;99.90;;;;;;10359222;28;20254;-64
2023/12/15 05:37:15;;;;;;;28.00;19.00;;;8.00;99.90;;;;;;10363656;28;20201;-65
2023/12/15 05:42:20;;;;;;;28.57;19.60;;;8.10;99.90;;;;;;10365230;28;20251;-65
2023/12/15 05:47:23;;;;;;;38.40;23.93;;;8.10;99.90;;;;;;10364807;28;20575;-64
2023/12/15 05:52:27;;;;;;;28.27;19.53;;;8.10;99.90;;;;;;10361127;28;20221;-64
2023/12/15 05:57:32;;;;;;;32.77;20.30;;;8.10;99.90;;;;;;10345057;28;20204;-65
2023/12/15 06:02:36;;;;;;;34.00;22.30;;;8.10;99.90;;;;;;10373990;28;20651;-65
2023/12/15 06:07:41;;;;;;;34.47;21.40;;;8.10;99.90;;;;;;10375368;28;20205;-65
2023/12/15 06:12:46;;;;;;;31.80;21.03;;;8.20;99.90;;;;;;10367589;28;20294;-64
2023/12/15 06:17:50;;;;;;;35.07;22.20;;;8.20;99.90;;;;;;10368585;28;20209;-64
2023/12/15 06:22:54;;;;;;;33.40;23.03;;;8.20;99.90;;;;;;10360394;28;20217;-65
2023/12/15 06:27:59;;;;;;;33.53;22.70;;;8.20;99.90;;;;;;10357830;28;20276;-64
2023/12/15 06:33:03;;;;;;;35.30;22.40;;;8.20;99.90;;;;;;10357217;28;20255;-65
2023/12/15 06:38:07;;;;;;;39.10;23.43;;;8.20;99.90;;;;;;10368692;28;20244;-65
2023/12/15 06:43:12;;;;;;;38.67;22.67;;;8.20;99.90;;;;;;10367724;28;20286;-65
2023/12/15 06:48:16;;;;;;;37.37;23.47;;;8.20;99.90;;;;;;10362924;28;20258;-64
2023/12/15 06:53:20;;;;;;;38.33;23.20;;;8.20;99.90;;;;;;10363258;28;20255;-64
2023/12/15 06:58:25;;;;;;;40.23;24.37;;;8.20;99.90;;;;;;10365024;28;20679;-65
2023/12/15 07:03:29;;;;;;;44.30;27.87;;;8.30;99.90;;;;;;10374378;28;20213;-65
2023/12/15 07:08:33;;;;;;;40.47;24.83;;;8.30;99.90;;;;;;10371750;28;20227;-65
2023/12/15 07:13:38;;;;;;;39.20;24.33;;;8.30;99.90;;;;;;10367888;28;20818;-64
2023/12/15 07:18:41;;;;;;;38.83;25.43;;;8.30;99.90;;;;;;10352825;28;20228;-63
2023/12/15 07:23:45;;;;;;;43.97;25.40;;;8.30;99.90;;;;;;10369163;28;20216;-64
2023/12/15 07:28:50;;;;;;;43.63;26.00;;;8.30;99.90;;;;;;10383670;28;20208;-64
2023/12/15 07:33:54;;;;;;;45.53;25.87;;;8.30;99.90;;;;;;10369496;28;20571;-64
2023/12/15 07:38:57;;;;;;;43.10;26.40;;;8.30;99.90;;;;;;10359622;28;20746;-65
2023/12/15 07:44:02;;;;;;;46.20;27.20;;;8.30;99.90;;;;;;10368553;28;20652;-72
2023/12/15 07:49:06;;;;;;;51.60;35.90;;;8.40;99.90;;;;;;10361715;28;20886;-66
2023/12/15 07:54:10;;;;;;;39.93;26.50;;;8.60;99.90;;;;;;10361128;28;20232;-65
2023/12/15 07:59:15;;;;;;;49.43;27.37;;;8.60;99.90;;;;;;10359042;28;20232;-66
2023/12/15 08:04:21;;;;;;;51.43;27.13;;;8.50;99.90;;;;;;10369630;28;20259;-66
2023/12/15 08:09:25;;;;;;;50.17;27.33;;;8.50;99.90;;;;;;10369700;28;20287;-65
2023/12/15 08:14:30;;;;;;;54.17;27.03;;;8.50;99.90;;;;;;10366067;28;20699;-67
2023/12/15 08:19:34;;;;;;;48.60;26.73;;;8.60;99.90;;;;;;10365776;28;20223;-67
2023/12/15 08:24:38;;;;;;;50.43;26.83;;;8.60;99.90;;;;;;10369387;28;20646;-66
2023/12/15 08:29:44;;;;;;;53.70;28.60;;;8.60;99.90;;;;;;10369920;28;20216;-66
2023/12/15 08:34:47;;;;;;;51.23;27.53;;;8.60;99.90;;;;;;10369947;28;20236;-66
2023/12/15 08:39:51;;;;;;;49.20;27.47;;;8.60;99.90;;;;;;10369046;28;20255;-67
2023/12/15 08:44:56;;;;;;;48.20;26.73;;;8.70;99.90;;;;;;10369557;28;20216;-65
2023/12/15 08:50:00;;;;;;;53.03;27.33;;;8.70;99.90;;;;;;10369132;28;20204;-66
2023/12/15 08:55:04;;;;;;;49.03;27.77;;;8.70;99.90;;;;;;10367553;28;20283;-66
2023/12/15 09:00:10;;;;;;;51.10;28.87;;;8.70;99.90;;;;;;10369503;28;20196;-66
2023/12/15 09:05:14;;;;;;;51.17;27.77;;;8.70;99.90;;;;;;10370047;28;20220;-66
2023/12/15 09:10:43;;;;;;;50.13;29.03;;;8.80;99.90;;;;;;10368420;28;20251;-66
2023/12/15 09:15:49;;;;;;;53.50;28.50;;;8.80;99.90;;;;;;10368934;28;20228;-65
2023/12/15 09:20:52;;;;;;;55.40;27.80;;;8.80;99.90;;;;;;10368908;28;20826;-67
2023/12/15 09:25:56;;;;;;;56.60;28.53;;;8.80;99.90;;;;;;10367753;28;20252;-65
2023/12/15 09:31:02;;;;;;;53.37;28.20;;;8.90;99.90;;;;;;10371894;28;20232;-68
2023/12/15 09:36:07;;;;;;;51.20;27.87;;;8.90;99.90;;;;;;10370174;28;20217;-68
2023/12/15 09:41:11;;;;;;;56.03;28.13;;;9.00;99.90;;;;;;10376134;28;20267;-68
2023/12/15 09:46:16;;;;;;;53.07;28.53;;;9.00;99.90;;;;;;10376593;28;20227;-68
2023/12/15 09:51:24;;;;;;;58.27;29.77;;;9.00;99.90;;;;;;10376964;28;20225;-68
2023/12/15 09:56:28;;;;;;;58.60;28.73;;;9.00;99.90;;;;;;10376299;28;20638;-68
2023/12/15 10:01:33;;;;;;;59.40;29.60;;;9.00;99.90;;;;;;10375337;28;20692;-68
2023/12/15 10:06:37;;;;;;;60.67;30.27;;;9.00;99.90;;;;;;10375558;28;20263;-65
2023/12/15 10:11:44;;;;;;;61.07;31.43;;;9.00;99.90;;;;;;10375476;28;20271;-65
2023/12/15 10:16:49;;;;;;;63.43;31.33;;;9.10;99.90;;;;;;10375505;28;20693;-65
2023/12/15 10:21:53;;;;;;;67.37;32.53;;;9.10;99.90;;;;;;10375177;28;20249;-65
2023/12/15 10:26:57;;;;;;;62.23;31.97;;;9.20;99.90;;;;;;10375549;28;20560;-64
2023/12/15 10:32:02;;;;;;;61.57;31.83;;;9.20;99.90;;;;;;10373934;28;20228;-64
2023/12/15 10:37:06;;;;;;;63.30;32.07;;;9.20;99.90;;;;;;10374349;28;20221;-65
2023/12/15 10:42:10;;;;;;;61.40;33.07;;;9.30;99.90;;;;;;10373334;28;20712;-64
2023/12/15 10:47:15;;;;;;;60.90;31.00;;;9.30;99.90;;;;;;10374692;28;20196;-64
2023/12/15 10:52:21;;;;;;;65.27;31.67;;;9.40;99.90;;;;;;10372992;28;20225;-66
2023/12/15 10:57:25;;;;;;;58.90;31.93;;;9.40;99.90;;;;;;10375021;28;20217;-66
2023/12/15 11:02:31;;;;;;;60.40;31.97;;;9.40;99.90;;;;;;10373828;28;20224;-65
2023/12/15 11:07:35;;;;;;;59.90;31.30;;;9.40;99.90;;;;;;10374923;28;20216;-66
2023/12/15 11:12:40;;;;;;;57.37;30.93;;;9.50;99.90;;;;;;10374183;28;20225;-66
2023/12/15 11:17:48;;;;;;;55.67;29.70;;;9.50;99.90;;;;;;10370091;28;20263;-67
2023/12/15 11:22:54;;;;;;;61.00;30.67;;;9.50;99.90;;;;;;10372693;28;20240;-67
2023/12/15 11:28:17;;;;;;;58.03;31.37;;;9.50;99.90;;;;;;10372949;28;20193;-67
2023/12/15 11:33:44;;;;;;;59.13;31.17;;;9.50;99.90;;;;;;10367221;28;20220;-66
2023/12/15 11:38:49;;;;;;;60.87;32.60;;;9.60;99.90;;;;;;10370420;28;20267;-66
2023/12/15 11:43:53;;;;;;;56.77;31.63;;;9.60;99.90;;;;;;10371949;28;20224;-66
2023/12/15 11:48:58;;;;;;;59.90;31.93;;;9.60;99.90;;;;;;10372826;28;20232;-66
2023/12/15 11:54:03;;;;;;;61.87;31.53;;;9.60;99.90;;;;;;10373587;28;20692;-67
2023/12/15 11:59:07;;;;;;;59.10;31.30;;;9.60;99.90;;;;;;10369325;28;20279;-66
2023/12/15 12:04:23;;;;;;;58.53;31.17;;;9.60;99.90;;;;;;10376259;28;20239;-65
2023/12/15 12:09:27;;;;;;;66.50;33.10;;;9.60;99.90;;;;;;10358641;28;20204;-67
2023/12/15 12:14:31;;;;;;;54.60;30.90;;;9.60;99.90;;;;;;10359710;28;20675;-67
2023/12/15 12:19:42;;;;;;;59.13;30.27;;;9.60;99.90;;;;;;10366270;28;20276;-66
2023/12/15 12:24:45;;;;;;;52.77;28.63;;;9.70;99.90;;;;;;10368124;28;20274;-66
2023/12/15 12:29:49;;;;;;;52.20;30.20;;;9.70;99.90;;;;;;10367945;28;20664;-67
2023/12/15 12:34:54;;;;;;;53.73;28.93;;;9.70;99.90;;;;;;10367800;28;20283;-66
2023/12/15 12:39:58;;;;;;;51.53;29.30;;;9.70;99.90;;;;;;10365675;28;20205;-66
2023/12/15 12:45:01;;;;;;;51.37;27.97;;;9.70;99.90;;;;;;10365407;28;20282;-65
2023/12/15 12:50:09;;;;;;;52.30;31.53;;;9.80;99.90;;;;;;10363782;28;20205;-68
2023/12/15 12:55:13;;;;;;;54.10;29.37;;;9.80;99.90;;;;;;10368525;28;20229;-67
2023/12/15 13:00:17;;;;;;;56.20;29.37;;;9.90;99.90;;;;;;10365492;28;20208;-66
2023/12/15 13:05:22;;;;;;;52.13;30.07;;;9.90;99.90;;;;;;10371182;28;20619;-66
2023/12/15 13:10:26;;;;;;;53.50;29.00;;;9.90;99.90;;;;;;10373749;28;20197;-68
2023/12/15 13:15:30;;;;;;;52.00;28.27;;;10.00;99.90;;;;;;10372577;28;20740;-67
2023/12/15 13:20:36;;;;;;;52.23;28.90;;;10.00;99.90;;;;;;10371914;28;20251;-66
2023/12/15 13:25:40;;;;;;;49.77;27.80;;;10.00;99.90;;;;;;10369758;28;20244;-68
2023/12/15 13:30:43;;;;;;;44.83;26.30;;;10.10;99.90;;;;;;10373506;28;20272;-67
2023/12/15 13:35:49;;;;;;;47.30;27.47;;;10.10;99.90;;;;;;10376952;28;20228;-67
2023/12/15 13:40:57;;;;;;;46.90;26.10;;;10.10;99.90;;;;;;10375391;28;20331;-66
2023/12/15 13:46:06;;;;;;;50.53;27.40;;;10.00;99.90;;;;;;10370786;28;20657;-65
2023/12/15 13:51:13;;;;;;;46.07;26.20;;;10.00;99.90;;;;;;10374436;28;20201;-67
2023/12/15 13:56:17;;;;;;;51.67;27.60;;;10.00;99.90;;;;;;10375249;28;20640;-67
2023/12/15 14:01:21;;;;;;;51.23;26.83;;;10.00;99.90;;;;;;10372200;28;20224;-67
2023/12/15 14:06:26;;;;;;;44.47;27.10;;;10.00;99.90;;;;;;10370189;28;20255;-66
2023/12/15 14:11:30;;;;;;;46.97;25.83;;;10.00;99.90;;;;;;10371919;28;20221;-67
2023/12/15 14:16:34;;;;;;;48.17;26.10;;;10.00;99.90;;;;;;10371604;28;20259;-64
2023/12/15 14:21:51;;;;;;;47.50;26.10;;;10.00;99.90;;;;;;10371040;28;20224;-62
2023/12/15 14:26:54;;;;;;;43.93;25.03;;;10.00;99.90;;;;;;10371941;28;20197;-64
2023/12/15 14:31:58;;;;;;;46.00;24.67;;;10.00;99.90;;;;;;10370913;28;20228;-62
2023/12/15 14:37:03;;;;;;;46.30;26.00;;;10.00;99.90;;;;;;10370713;28;20291;-63
2023/12/15 14:42:07;;;;;;;45.90;25.03;;;9.90;99.90;;;;;;10367821;28;20239;-67
2023/12/15 14:47:11;;;;;;;47.10;25.37;;;9.90;99.90;;;;;;10372294;28;20216;-66
2023/12/15 14:52:16;;;;;;;52.03;26.57;;;9.90;99.90;;;;;;10314008;28;20233;-66
2023/12/15 14:57:20;;;;;;;44.20;24.93;;;9.90;99.90;;;;;;10328080;28;20292;-66
2023/12/15 15:02:23;;;;;;;53.20;27.10;;;9.80;99.90;;;;;;10333052;28;20763;-66
2023/12/15 15:07:28;;;;;;;48.87;27.47;;;9.80;99.90;;;;;;10329990;28;20201;-63
2023/12/15 15:12:32;;;;;;;47.50;25.80;;;9.80;99.90;;;;;;10328657;28;20842;-66
2023/12/15 15:17:36;;;;;;;51.80;27.10;;;9.80;99.90;;;;;;10330239;28;20222;-67
2023/12/15 15:22:41;;;;;;;53.70;27.23;;;9.80;99.90;;;;;;10295372;28;20773;-67
2023/12/15 15:27:45;;;;;;;50.70;27.37;;;9.80;99.90;;;;;;10329827;28;20198;-67
2023/12/15 15:32:52;;;;;;;49.60;26.40;;;9.80;99.90;;;;;;10329407;28;20229;-66
2023/12/15 15:37:57;;;;;;;50.37;27.83;;;9.90;99.90;;;;;;10330348;28;20221;-66
2023/12/15 15:43:02;;;;;;;48.47;26.10;;;9.80;99.90;;;;;;10328344;28;20245;-65
2023/12/15 15:48:06;;;;;;;49.60;26.57;;;9.80;99.90;;;;;;10323476;28;20712;-65
2023/12/15 15:53:12;;;;;;;46.83;25.53;;;9.80;99.90;;;;;;10329011;28;20225;-69
2023/12/15 15:58:16;;;;;;;52.00;26.00;;;9.80;99.90;;;;;;10326487;28;20279;-66
2023/12/15 16:03:20;;;;;;;53.77;28.47;;;9.80;99.90;;;;;;10326062;28;20268;-66
2023/12/15 16:08:25;;;;;;;45.70;27.37;;;9.80;99.90;;;;;;10329377;28;20893;-68
2023/12/15 16:13:29;;;;;;;45.23;27.00;;;9.80;99.90;;;;;;10327920;28;20221;-66
2023/12/15 16:18:33;;;;;;;48.53;26.97;;;9.80;99.90;;;;;;10328030;28;20713;-66
2023/12/15 16:23:38;;;;;;;47.27;26.70;;;9.80;99.90;;;;;;10328080;28;20704;-65
2023/12/15 16:28:43;;;;;;;47.77;26.93;;;9.80;99.90;;;;;;10328917;28;20208;-67
2023/12/15 16:33:46;;;;;;;46.40;26.57;;;9.80;99.90;;;;;;10328112;28;20272;-66
2023/12/15 16:38:52;;;;;;;49.33;26.97;;;9.80;99.90;;;;;;10329606;28;20233;-66
2023/12/15 16:43:55;;;;;;;49.23;28.10;;;9.80;99.90;;;;;;10327416;28;20224;-65
2023/12/15 16:48:59;;;;;;;45.53;26.83;;;9.80;99.90;;;;;;10328039;28;20638;-66
2023/12/15 16:54:05;;;;;;;42.23;25.17;;;9.80;99.90;;;;;;10333032;28;20272;-66
2023/12/15 16:59:10;;;;;;;43.47;26.87;;;9.80;99.90;;;;;;10337915;28;20221;-66
2023/12/15 17:04:14;;;;;;;43.47;24.70;;;9.80;99.90;;;;;;10331511;28;20225;-66
2023/12/15 17:09:19;;;;;;;41.70;26.63;;;9.80;99.90;;;;;;10327612;28;20255;-66
2023/12/15 17:14:23;;;;;;;50.93;29.30;;;9.80;99.90;;;;;;10327063;28;20743;-65
2023/12/15 17:19:27;;;;;;;44.63;27.03;;;9.80;99.90;;;;;;10337181;28;20273;-65
2023/12/15 17:24:32;;;;;;;38.43;23.70;;;9.70;99.90;;;;;;10323738;28;20217;-65
2023/12/15 17:29:35;;;;;;;50.07;27.87;;;9.70;99.90;;;;;;10322597;28;20260;-66
2023/12/15 17:34:52;;;;;;;42.28;27.52;;;9.70;99.90;;;;;;10324377;28;20472;-61
2023/12/15 17:39:57;;;;;;;39.17;22.40;;;9.80;99.90;;;;;;10324279;28;20276;-63
2023/12/15 17:45:00;;;;;;;30.30;18.67;;;9.90;99.90;;;;;;10323156;28;20222;-63
2023/12/15 17:50:04;;;;;;;32.67;19.13;;;9.80;99.90;;;;;;10325117;28;20261;-67
2023/12/15 17:55:09;;;;;;;37.50;22.03;;;9.80;99.90;;;;;;10333492;28;20642;-63
2023/12/15 18:00:14;;;;;;;27.47;14.67;;;9.80;99.90;;;;;;10332853;28;20773;-61
2023/12/15 18:05:17;;;;;;;24.23;14.80;;;9.80;99.90;;;;;;10330848;28;20229;-64
2023/12/15 18:15:45;;;;;;;24.03;14.17;;;9.70;99.90;;;;;;10060349;28;20250;-65
2023/12/15 18:20:49;;;;;;;25.43;13.27;;;9.70;99.90;;;;;;10245785;28;20268;-65
2023/12/15 18:25:55;;;;;;;25.13;13.80;;;9.70;99.90;;;;;;10324316;28;20221;-66
2023/12/15 18:30:58;;;;;;;24.50;12.17;;;9.70;99.90;;;;;;10324721;28;21348;-64
2023/12/15 18:36:06;;;;;;;20.03;11.50;;;9.70;99.90;;;;;;10262606;28;20225;-62
2023/12/15 18:41:16;;;;;;;18.05;11.00;;;9.70;99.90;;;;;;10303814;28;20230;-65
2023/12/15 18:46:19;;;;;;;24.23;11.20;;;9.70;99.90;;;;;;10328269;28;20256;-66
2023/12/15 18:51:23;;;;;;;19.90;10.37;;;9.60;99.90;;;;;;10330509;28;20213;-63
2023/12/15 18:56:28;;;;;;;20.67;10.97;;;9.60;99.90;;;;;;10326931;28;20738;-65
2023/12/15 19:01:34;;;;;;;19.07;11.23;;;9.70;99.90;;;;;;10257589;28;20226;-65
2023/12/15 19:06:37;;;;;;;25.00;11.02;;;9.70;99.90;;;;;;10330863;28;20260;-65
2023/12/15 19:11:42;;;;;;;22.20;11.10;;;9.70;99.90;;;;;;10338863;28;20598;-65
2023/12/15 19:16:47;;;;;;;21.10;11.10;;;9.70;99.90;;;;;;10330478;28;20209;-65
2023/12/15 19:21:51;;;;;;;20.40;11.20;;;9.70;99.90;;;;;;10328689;28;20253;-65
2023/12/15 19:26:56;;;;;;;21.13;11.10;;;9.70;99.90;;;;;;10328354;28;20755;-64
2023/12/15 19:31:59;;;;;;;19.60;9.87;;;9.70;99.90;;;;;;10326058;28;20233;-64
2023/12/15 19:37:03;;;;;;;19.67;9.83;;;9.70;99.90;;;;;;10344308;28;20265;-64
2023/12/15 19:42:08;;;;;;;20.77;10.13;;;9.70;99.90;;;;;;10364331;28;20279;-66
2023/12/15 19:47:14;;;;;;;15.47;9.67;;;9.60;99.90;;;;;;10372658;28;20201;-65
2023/12/15 19:52:17;;;;;;;20.43;9.77;;;9.60;99.90;;;;;;10369407;28;20686;-64
2023/12/15 19:57:22;;;;;;;17.30;9.13;;;9.60;99.90;;;;;;10365349;28;20204;-65
2023/12/15 20:02:26;;;;;;;20.40;9.43;;;9.60;99.90;;;;;;10369083;28;20248;-65
2023/12/15 20:07:29;;;;;;;15.65;8.38;;;9.60;99.90;;;;;;10356577;28;20621;-63
2023/12/15 20:12:34;;;;;;;15.37;7.43;;;9.60;99.90;;;;;;10361355;28;20593;-65
2023/12/15 20:17:39;;;;;;;17.50;8.02;;;9.60;99.90;;;;;;10362075;28;20205;-65
2023/12/15 20:22:43;;;;;;;14.13;7.60;;;9.60;99.90;;;;;;10356249;28;20298;-65
2023/12/15 20:27:48;;;;;;;16.37;7.23;;;9.60;99.90;;;;;;10358997;28;20250;-65
2023/12/15 20:32:52;;;;;;;15.23;7.03;;;9.60;99.90;;;;;;10366124;28;20274;-64
2023/12/15 20:37:56;;;;;;;16.67;7.87;;;9.60;99.90;;;;;;10360475;28;20228;-65
2023/12/15 20:43:01;;;;;;;20.93;8.60;;;9.60;99.90;;;;;;10356690;28;20220;-66
2023/12/15 20:48:05;;;;;;;16.83;8.00;;;9.60;99.90;;;;;;10356538;28;20198;-65
2023/12/15 20:53:09;;;;;;;13.20;7.30;;;9.60;99.90;;;;;;10363279;28;20213;-65
2023/12/15 20:58:16;;;;;;;14.07;7.87;;;9.60;99.90;;;;;;10354531;28;20278;-64
2023/12/15 21:03:20;;;;;;;17.83;7.87;;;9.60;99.90;;;;;;10366321;28;20221;-64
2023/12/15 21:08:24;;;;;;;13.23;7.47;;;9.60;99.90;;;;;;10367240;28;20718;-65
2023/12/15 21:13:29;;;;;;;14.40;7.50;;;9.50;99.90;;;;;;10367506;28;20719;-66
2023/12/15 21:18:32;;;;;;;14.80;6.40;;;9.50;99.90;;;;;;10367392;28;20196;-66
2023/12/15 21:23:36;;;;;;;12.80;5.70;;;9.60;99.90;;;;;;10366959;28;20598;-66
2023/12/15 21:28:41;;;;;;;13.30;6.17;;;9.50;99.90;;;;;;10372097;28;20220;-66
2023/12/15 21:33:45;;;;;;;15.30;9.27;;;9.50;99.90;;;;;;10372407;28;20283;-65
2023/12/15 21:38:48;;;;;;;12.93;6.65;;;9.50;99.90;;;;;;10375007;28;20201;-66
2023/12/15 21:43:55;;;;;;;12.43;7.30;;;9.50;99.90;;;;;;10374818;28;20217;-66
2023/12/15 21:48:58;;;;;;;14.93;7.17;;;9.50;99.90;;;;;;10374518;28;20251;-65
2023/12/15 21:54:04;;;;;;;13.57;5.73;;;9.50;99.90;;;;;;10373511;28;20286;-66
2023/12/15 21:59:12;;;;;;;13.50;5.53;;;9.50;99.90;;;;;;10373564;28;20224;-66
2023/12/15 22:04:15;;;;;;;12.30;5.40;;;9.50;99.90;;;;;;10373379;28;20225;-66
2023/12/15 22:09:19;;;;;;;12.27;5.13;;;9.50;99.70;;;;;;10370738;28;20205;-64
2023/12/15 22:14:24;;;;;;;12.43;5.33;;;9.40;99.90;;;;;;10373379;28;20826;-67
2023/12/15 22:19:38;;;;;;;10.30;5.03;;;9.50;99.90;;;;;;10367735;28;20271;-65
2023/12/15 22:24:42;;;;;;;13.60;4.80;;;9.40;99.70;;;;;;10370618;28;20221;-64
2023/12/15 22:29:49;;;;;;;10.27;4.40;;;9.40;99.70;;;;;;10371250;28;20208;-65
2023/12/15 22:34:53;;;;;;;12.20;4.93;;;9.40;99.50;;;;;;10371984;28;20376;-66
2023/12/15 22:39:57;;;;;;;12.37;5.00;;;9.40;99.70;;;;;;10370217;28;20217;-64
2023/12/15 22:45:03;;;;;;;12.53;4.53;;;9.40;99.90;;;;;;10369571;28;20221;-64
2023/12/15 22:50:08;;;;;;;10.33;4.90;;;9.40;99.00;;;;;;10370849;28;20227;-64
2023/12/15 22:55:11;;;;;;;13.33;4.53;;;9.40;99.10;;;;;;10370838;28;20225;-64
2023/12/15 23:00:18;;;;;;;11.57;4.67;;;9.40;99.10;;;;;;10368934;28;20283;-65
2023/12/15 23:05:22;;;;;;;14.60;5.07;;;9.40;99.20;;;;;;10370094;28;20593;-65
2023/12/15 23:10:27;;;;;;;12.43;4.97;;;9.40;99.80;;;;;;10369722;28;20201;-64
2023/12/15 23:15:32;;;;;;;12.37;4.70;;;9.40;99.50;;;;;;10370630;28;20244;-65
2023/12/15 23:20:35;;;;;;;10.47;4.70;;;9.40;98.40;;;;;;10369886;28;20259;-64
2023/12/15 23:25:39;;;;;;;12.43;4.80;;;9.40;99.10;;;;;;10369292;28;20216;-66
2023/12/15 23:30:44;;;;;;;12.40;4.93;;;9.40;98.90;;;;;;10369637;28;20209;-66
2023/12/15 23:35:48;;;;;;;12.60;5.40;;;9.40;99.20;;;;;;10369668;28;20297;-66
2023/12/15 23:40:51;;;;;;;15.73;5.70;;;9.40;98.70;;;;;;10369702;28;20834;-67
2023/12/15 23:45:56;;;;;;;13.00;5.87;;;9.40;98.80;;;;;;10368696;28;20274;-65
2023/12/15 23:51:01;;;;;;;17.73;5.63;;;9.40;98.80;;;;;;10369051;28;20193;-66
2023/12/15 23:56:05;;;;;;;13.30;5.23;;;9.40;98.90;;;;;;10367059;28;20251;-66
